Aviation Digital Data Service (ADDS)

Output produced by METARs form (2125 UTC 08 August 2020)
found at http://www.aviationweather.gov/metar/data/
 
Forecast for: OEMA (MADINAH INTL ARP, SA)
Text: TAF OEMA 081700Z 0818/0924 29010KT CAVOK
Forecast period: 1800 UTC 08 August 2020 to 0000 UTC 09 August 2020
Forecast type: FROM: standard forecast or significant change
Winds: from the WNW (290 degrees) at 12 MPH (10 knots; 5.1 m/s)
Visibility: 6 or more miles (10+ km)
Ceiling: unknown
Clouds: missing
Weather: NSW  (no significant weather)
Text: BECMG 0900/0902 23012KT
Forecast period: 0000 UTC 09 August 2020 to 0000 UTC 10 August 2020
Forecast type: BECOMING: Conditions expected to become as follows by 0200 UTC 09 August 2020
Winds: from the SW (230 degrees) at 14 MPH (12 knots; 6.2 m/s)
Visibility: 6 or more miles (10+ km)
Ceiling: unknown
Clouds: missing
Weather: NSW  (no significant weather)